Time;durP1;ratioP1;P1;durP2;ratioP2;P2;SDS_P1;SDS_P2;PMS_P1;PMS_P2;Temp;Humidity;BMP_temperature;BMP_pressure;BME280_temperature;BME280_humidity;BME280_pressure;Samples;Min_cycle;Max_cycle;Signal;HPM_P1;HPM_P2
2022/01/09 00:01:25;;;;;;;28.35;18.80;;;3.10;99.90;;;;;;4939640;29;20447;-47
2022/01/09 00:03:52;;;;;;;31.25;20.80;;;3.30;99.90;;;;;;4890662;29;20035;-47
2022/01/09 00:06:18;;;;;;;30.95;20.67;;;3.40;99.90;;;;;;4938973;29;20042;-49
2022/01/09 00:08:44;;;;;;;35.17;22.50;;;3.50;99.90;;;;;;4940309;29;20416;-54
2022/01/09 00:11:14;;;;;;;35.38;22.10;;;3.60;99.90;;;;;;4941807;29;20032;-45
2022/01/09 00:13:45;;;;;;;33.72;21.48;;;3.70;99.90;;;;;;4921916;29;20126;-47
2022/01/09 00:16:11;;;;;;;29.25;19.95;;;;;;;;;;4875050;29;20046;-49
2022/01/09 00:18:36;;;;;;;27.15;17.13;;;3.70;99.90;;;;;;4890426;29;20036;-48
2022/01/09 00:21:06;;;;;;;25.10;17.98;;;3.90;99.90;;;;;;4938988;29;20030;-49
2022/01/09 00:23:33;;;;;;;27.92;19.08;;;3.90;99.90;;;;;;4939150;29;20036;-48
2022/01/09 00:26:00;;;;;;;25.73;17.85;;;3.80;99.90;;;;;;4938939;29;20039;-46
2022/01/09 00:28:26;;;;;;;25.95;18.70;;;4.00;99.90;;;;;;4905532;29;20039;-50
2022/01/09 00:30:51;;;;;;;25.20;16.85;;;4.10;99.90;;;;;;4938997;29;20028;-47
2022/01/09 00:33:21;;;;;;;28.33;17.15;;;4.00;99.90;;;;;;4938806;29;20031;-49
2022/01/09 00:35:47;;;;;;;24.98;17.30;;;3.90;99.90;;;;;;4938419;29;20106;-49
2022/01/09 00:38:13;;;;;;;28.02;17.88;;;3.90;99.90;;;;;;4921160;29;20123;-47
2022/01/09 00:40:39;;;;;;;23.08;15.35;;;3.90;99.90;;;;;;4938757;29;20118;-46
2022/01/09 00:43:09;;;;;;;21.45;14.93;;;3.90;99.90;;;;;;4939157;29;20035;-49
2022/01/09 00:45:39;;;;;;;25.48;15.82;;;4.00;99.90;;;;;;4938743;29;20147;-48
2022/01/09 00:48:06;;;;;;;23.50;14.30;;;4.00;99.90;;;;;;4938496;29;20078;-49
2022/01/09 00:50:36;;;;;;;24.45;15.35;;;3.90;99.90;;;;;;4921016;29;20074;-50
2022/01/09 00:53:04;;;;;;;23.00;14.52;;;3.90;99.90;;;;;;4938751;29;20038;-48
2022/01/09 00:55:29;;;;;;;25.33;14.85;;;3.80;99.90;;;;;;4938583;29;20023;-49
2022/01/09 00:57:55;;;;;;;23.48;15.50;;;4.00;99.90;;;;;;4937755;29;20171;-46
2022/01/09 01:00:21;;;;;;;23.60;14.95;;;3.80;99.90;;;;;;4889588;29;20047;-49
2022/01/09 01:02:47;;;;;;;22.55;13.70;;;3.90;99.90;;;;;;4920675;29;20039;-48
2022/01/09 01:05:13;;;;;;;20.60;13.57;;;4.00;99.90;;;;;;4904519;29;20511;-48
2022/01/09 01:07:38;;;;;;;19.98;13.82;;;4.00;99.90;;;;;;4920672;29;20044;-47
2022/01/09 01:10:05;;;;;;;22.75;14.40;;;4.00;99.90;;;;;;4938721;29;20024;-47
2022/01/09 01:12:31;;;;;;;19.85;14.18;;;4.10;99.90;;;;;;4937989;29;20175;-49
2022/01/09 01:14:57;;;;;;;17.73;12.40;;;4.10;99.90;;;;;;4938180;29;20428;-48
2022/01/09 01:17:24;;;;;;;22.10;13.35;;;4.10;99.90;;;;;;4920255;29;20047;-49
2022/01/09 01:19:50;;;;;;;20.55;14.10;;;4.20;99.90;;;;;;4889441;29;20391;-46
2022/01/09 01:22:16;;;;;;;16.92;12.73;;;4.20;99.90;;;;;;4938152;29;20042;-46
2022/01/09 01:24:43;;;;;;;19.42;13.32;;;4.20;99.90;;;;;;4937768;29;20087;-48
2022/01/09 01:27:09;;;;;;;17.55;12.32;;;4.20;99.90;;;;;;4937845;29;20587;-47
2022/01/09 01:29:36;;;;;;;17.90;12.73;;;4.20;99.90;;;;;;4889226;29;20040;-49
2022/01/09 01:32:03;;;;;;;19.25;13.48;;;4.30;99.90;;;;;;4937968;29;20032;-49
2022/01/09 01:34:29;;;;;;;21.05;13.75;;;4.30;99.90;;;;;;4873444;29;20416;-48
2022/01/09 01:36:54;;;;;;;18.60;12.68;;;4.30;99.90;;;;;;4888625;29;20051;-46
2022/01/09 01:39:20;;;;;;;20.08;12.45;;;4.30;99.90;;;;;;4920012;29;20036;-47
2022/01/09 01:41:47;;;;;;;24.00;16.27;;;4.40;99.90;;;;;;4937757;29;20039;-49
2022/01/09 01:44:13;;;;;;;21.48;14.27;;;4.30;99.90;;;;;;4922438;29;20045;-49
2022/01/09 01:46:39;;;;;;;19.63;12.75;;;4.30;99.90;;;;;;4938961;29;20035;-46
2022/01/09 01:49:06;;;;;;;17.65;12.68;;;4.30;99.90;;;;;;4937539;29;20020;-50
2022/01/09 01:51:34;;;;;;;18.70;13.18;;;4.30;99.90;;;;;;4937362;29;20024;-48
2022/01/09 01:54:04;;;;;;;21.05;12.82;;;4.30;99.90;;;;;;4937358;29;20479;-47
2022/01/09 01:56:29;;;;;;;20.27;12.15;;;4.40;99.90;;;;;;4937658;29;20082;-49
2022/01/09 01:58:56;;;;;;;18.40;12.27;;;4.40;99.90;;;;;;4919930;29;20126;-45
2022/01/09 02:01:22;;;;;;;19.58;14.00;;;4.40;99.90;;;;;;4937040;29;20031;-46
2022/01/09 02:03:47;;;;;;;18.48;12.48;;;4.40;99.90;;;;;;4919637;29;20045;-47
2022/01/09 02:06:16;;;;;;;19.05;13.00;;;4.40;99.90;;;;;;4919966;29;20044;-50
2022/01/09 02:08:43;;;;;;;20.42;12.85;;;4.50;99.90;;;;;;4936963;29;20038;-45
2022/01/09 02:11:12;;;;;;;19.70;13.05;;;4.50;99.90;;;;;;4919337;29;20043;-46
2022/01/09 02:13:40;;;;;;;21.50;13.48;;;4.50;99.90;;;;;;4937407;29;20460;-45
2022/01/09 02:16:16;;;;;;;18.65;13.27;;;4.30;99.90;;;;;;4936931;29;20035;-46
2022/01/09 02:18:42;;;;;;;19.15;12.93;;;4.40;99.90;;;;;;4937148;29;20035;-45
2022/01/09 02:21:10;;;;;;;17.42;12.57;;;4.30;99.90;;;;;;4936841;29;20131;-47
2022/01/09 02:23:38;;;;;;;19.65;12.90;;;4.30;99.90;;;;;;4936904;29;20053;-49
2022/01/09 02:26:04;;;;;;;17.77;12.00;;;4.30;99.90;;;;;;4936567;29;20035;-48
2022/01/09 02:28:32;;;;;;;18.20;13.05;;;4.30;99.90;;;;;;4937244;29;20032;-48
2022/01/09 02:30:58;;;;;;;20.27;13.82;;;4.20;99.90;;;;;;4826986;29;20566;-49
2022/01/09 02:33:23;;;;;;;19.80;14.00;;;4.10;99.90;;;;;;4936604;29;20027;-49
2022/01/09 02:35:51;;;;;;;23.67;16.48;;;4.20;99.90;;;;;;4936461;29;20107;-46
2022/01/09 02:38:18;;;;;;;27.10;17.55;;;4.30;99.90;;;;;;4936700;29;20062;-46
2022/01/09 02:40:44;;;;;;;27.63;17.05;;;4.30;99.90;;;;;;4933745;29;20035;-46
2022/01/09 02:43:09;;;;;;;30.83;17.45;;;4.20;99.90;;;;;;4918976;29;20038;-47
2022/01/09 02:45:36;;;;;;;36.10;18.63;;;4.30;99.90;;;;;;4936220;29;20109;-48
2022/01/09 02:48:03;;;;;;;24.95;15.57;;;4.20;99.90;;;;;;5163935;23;20533;-45
2022/01/09 02:50:34;;;;;;;24.38;15.48;;;4.20;99.90;;;;;;4888368;29;20040;-47
2022/01/09 02:53:12;;;;;;;18.85;13.07;;;4.20;99.90;;;;;;4919214;29;20387;-49
2022/01/09 02:55:38;;;;;;;19.05;12.10;;;4.20;99.90;;;;;;4936853;29;20040;-50
2022/01/09 02:58:03;;;;;;;17.40;12.55;;;4.20;99.90;;;;;;4888029;29;20520;-49
2022/01/09 03:00:35;;;;;;;17.48;12.82;;;4.20;99.90;;;;;;4826428;29;20031;-47
2022/01/09 03:03:01;;;;;;;17.27;12.55;;;4.10;99.90;;;;;;4903285;29;20038;-49
2022/01/09 03:05:29;;;;;;;20.08;13.07;;;4.10;99.90;;;;;;4936673;29;20047;-49
2022/01/09 03:07:55;;;;;;;19.15;13.48;;;4.20;99.90;;;;;;4936713;29;20028;-45
2022/01/09 03:10:21;;;;;;;17.50;12.70;;;4.20;99.90;;;;;;4936492;29;20028;-49
2022/01/09 03:12:48;;;;;;;20.10;13.70;;;4.20;99.90;;;;;;4918970;29;20398;-45
2022/01/09 03:15:14;;;;;;;17.95;13.00;;;4.30;99.90;;;;;;4936653;29;20034;-47
2022/01/09 03:17:41;;;;;;;17.98;13.98;;;4.20;99.90;;;;;;4936638;29;20024;-46
2022/01/09 03:20:10;;;;;;;21.95;12.85;;;4.20;99.90;;;;;;4918487;29;20451;-46
2022/01/09 03:22:36;;;;;;;22.75;13.73;;;4.20;99.90;;;;;;4902915;29;20032;-50
2022/01/09 03:25:03;;;;;;;19.25;13.35;;;4.20;99.90;;;;;;4887522;29;20098;-47
2022/01/09 03:27:29;;;;;;;22.30;13.15;;;4.10;99.90;;;;;;4887849;29;20043;-49
2022/01/09 03:29:58;;;;;;;20.00;14.15;;;4.10;99.90;;;;;;4936512;29;20024;-47
2022/01/09 03:32:23;;;;;;;19.52;13.68;;;4.10;99.90;;;;;;4903163;29;20035;-48
2022/01/09 03:34:49;;;;;;;23.40;16.08;;;4.20;99.90;;;;;;4888011;29;20035;-49
2022/01/09 03:37:15;;;;;;;21.17;14.23;;;4.20;99.90;;;;;;4887418;29;20399;-47
2022/01/09 03:39:41;;;;;;;19.90;14.32;;;4.20;99.90;;;;;;4936268;29;20027;-47
2022/01/09 03:42:06;;;;;;;20.92;14.25;;;4.20;99.90;;;;;;4936183;29;20023;-49
2022/01/09 03:44:32;;;;;;;20.52;14.40;;;4.20;99.90;;;;;;4936283;29;20028;-47
2022/01/09 03:46:58;;;;;;;21.02;14.38;;;4.10;99.90;;;;;;4936387;29;20383;-50
2022/01/09 03:49:24;;;;;;;21.33;15.35;;;4.00;99.90;;;;;;4935881;29;20055;-49
2022/01/09 03:51:52;;;;;;;21.80;14.82;;;3.90;99.90;;;;;;4918510;29;20507;-49
2022/01/09 03:54:21;;;;;;;23.33;15.30;;;3.90;99.90;;;;;;4936004;29;20032;-46
2022/01/09 03:56:50;;;;;;;20.95;15.27;;;3.80;99.90;;;;;;4936292;29;20032;-49
2022/01/09 03:59:16;;;;;;;22.02;15.55;;;3.80;99.90;;;;;;4936180;29;20460;-49
2022/01/09 04:01:43;;;;;;;42.58;25.33;;;3.70;99.90;;;;;;4936202;29;20071;-46
2022/01/09 04:04:09;;;;;;;38.65;23.67;;;3.60;99.90;;;;;;4936024;29;20034;-47
2022/01/09 04:06:35;;;;;;;27.05;17.05;;;3.30;99.90;;;;;;4935955;29;20572;-50
2022/01/09 04:09:07;;;;;;;25.75;17.42;;;2.90;99.90;;;;;;4936150;29;20398;-49
2022/01/09 04:11:38;;;;;;;38.05;19.27;;;2.60;99.90;;;;;;4935794;29;20047;-46
2022/01/09 04:14:05;;;;;;;26.58;17.25;;;2.50;99.90;;;;;;4936151;29;20043;-47
2022/01/09 04:16:31;;;;;;;27.45;17.40;;;2.10;99.90;;;;;;4935789;29;20035;-47
2022/01/09 04:18:57;;;;;;;29.65;18.35;;;1.90;99.90;;;;;;4855911;29;20028;-46
2022/01/09 04:21:22;;;;;;;22.73;15.57;;;1.70;99.90;;;;;;4887188;29;20063;-48
2022/01/09 04:23:48;;;;;;;21.42;14.77;;;1.50;99.90;;;;;;4936034;29;20380;-46
2022/01/09 04:26:16;;;;;;;25.45;15.30;;;1.40;99.90;;;;;;4935944;29;20067;-49
2022/01/09 04:28:42;;;;;;;23.58;14.75;;;1.10;99.90;;;;;;4936073;29;20431;-49
2022/01/09 04:31:08;;;;;;;25.67;15.52;;;1.00;99.90;;;;;;4871492;29;20066;-48
2022/01/09 04:33:34;;;;;;;27.38;16.75;;;0.90;99.90;;;;;;4937997;29;20024;-47
2022/01/09 04:36:00;;;;;;;29.38;18.95;;;0.90;99.90;;;;;;4939360;29;20039;-47
2022/01/09 04:38:25;;;;;;;29.55;16.60;;;0.90;99.90;;;;;;4939016;29;20028;-50
2022/01/09 04:40:51;;;;;;;28.38;17.48;;;0.90;99.90;;;;;;4890278;29;20036;-47
2022/01/09 04:43:18;;;;;;;29.58;18.65;;;0.90;99.90;;;;;;4890256;29;20063;-47
2022/01/09 04:45:44;;;;;;;25.65;14.25;;;0.80;99.90;;;;;;4939053;29;20391;-48
2022/01/09 04:48:11;;;;;;;24.60;14.75;;;0.80;99.90;;;;;;4939109;29;20055;-47
2022/01/09 04:50:39;;;;;;;21.25;14.38;;;0.90;99.90;;;;;;4939102;29;20055;-47
2022/01/09 04:53:07;;;;;;;20.75;13.98;;;1.10;99.90;;;;;;4939065;29;20027;-49
2022/01/09 04:55:34;;;;;;;20.45;13.02;;;1.20;99.90;;;;;;4938678;29;20044;-47
2022/01/09 04:58:01;;;;;;;19.85;13.13;;;1.20;99.90;;;;;;4938772;29;20023;-46
2022/01/09 05:00:27;;;;;;;20.90;11.95;;;1.10;99.90;;;;;;4938981;29;20023;-49
2022/01/09 05:02:53;;;;;;;21.63;12.95;;;1.00;99.90;;;;;;4921179;29;20482;-47
2022/01/09 05:05:19;;;;;;;20.50;11.93;;;0.80;99.90;;;;;;4938763;29;20036;-48
2022/01/09 05:07:45;;;;;;;16.70;10.75;;;0.80;99.90;;;;;;4859333;29;20440;-48
2022/01/09 05:10:12;;;;;;;14.93;10.05;;;;;;;;;;4938989;29;20035;-48
2022/01/09 05:12:38;;;;;;;19.50;12.20;;;0.80;99.90;;;;;;4890074;29;20039;-46
2022/01/09 05:15:05;;;;;;;20.48;12.57;;;0.70;99.90;;;;;;4938355;29;20034;-50
2022/01/09 05:17:31;;;;;;;22.58;11.73;;;0.80;99.90;;;;;;4873949;29;20032;-46
2022/01/09 05:19:57;;;;;;;20.48;12.80;;;0.80;99.90;;;;;;4938262;29;20053;-48
2022/01/09 05:22:30;;;;;;;20.02;12.60;;;0.70;99.90;;;;;;4938517;29;20037;-45
2022/01/09 05:24:58;;;;;;;;;;;0.70;99.90;;;;;;4938905;29;20059;-46
2022/01/09 05:27:25;;;;;;;22.92;13.55;;;0.80;99.90;;;;;;4938461;29;19910;-48
2022/01/09 05:29:51;;;;;;;20.27;13.52;;;0.90;99.90;;;;;;4938122;29;20024;-47
2022/01/09 05:32:17;;;;;;;24.20;13.38;;;1.10;99.90;;;;;;4938008;29;20504;-47
2022/01/09 05:34:43;;;;;;;28.02;14.75;;;1.00;99.90;;;;;;4920687;29;20035;-49
2022/01/09 05:37:09;;;;;;;26.10;17.50;;;1.00;99.90;;;;;;4937871;29;20035;-49
2022/01/09 05:39:35;;;;;;;29.20;18.45;;;1.10;99.90;;;;;;4938152;29;20024;-48
2022/01/09 05:42:04;;;;;;;30.65;17.60;;;1.60;99.90;;;;;;4937801;29;20467;-46
2022/01/09 05:44:31;;;;;;;25.40;16.65;;;1.80;99.90;;;;;;4888649;29;20087;-47
2022/01/09 05:46:58;;;;;;;26.17;15.77;;;1.90;99.90;;;;;;4889775;29;20476;-46
2022/01/09 05:49:24;;;;;;;24.65;16.23;;;2.00;99.90;;;;;;4937469;29;20060;-48
2022/01/09 05:51:50;;;;;;;23.90;15.70;;;1.50;99.90;;;;;;4889145;29;20040;-45
2022/01/09 05:54:15;;;;;;;26.50;15.23;;;1.20;99.90;;;;;;4937946;29;20024;-47
2022/01/09 05:56:41;;;;;;;24.70;14.73;;;1.20;99.90;;;;;;4937551;29;20024;-48
2022/01/09 05:59:07;;;;;;;26.25;16.00;;;0.70;99.90;;;;;;4937969;29;20115;-46
2022/01/09 06:01:34;;;;;;;23.85;15.43;;;0.60;99.90;;;;;;4873185;29;20047;-46
2022/01/09 06:04:00;;;;;;;22.48;15.65;;;0.80;99.90;;;;;;4937708;29;20039;-46
2022/01/09 06:06:26;;;;;;;25.73;16.60;;;0.50;99.90;;;;;;4937284;29;20391;-48
2022/01/09 06:08:51;;;;;;;26.20;15.98;;;0.60;99.90;;;;;;4938415;29;20024;-48
2022/01/09 06:11:17;;;;;;;23.55;15.65;;;0.50;99.90;;;;;;4888751;29;20131;-47
2022/01/09 06:13:43;;;;;;;30.08;18.73;;;0.70;99.90;;;;;;4937276;29;20028;-45
2022/01/09 06:16:09;;;;;;;32.70;19.58;;;0.60;99.90;;;;;;4937502;29;20110;-46
2022/01/09 06:18:34;;;;;;;68.38;33.20;;;0.50;99.90;;;;;;4904181;29;20507;-46
2022/01/09 06:21:00;;;;;;;58.22;30.55;;;0.30;99.90;;;;;;4937400;29;20019;-47
2022/01/09 06:23:26;;;;;;;64.32;33.97;;;0.40;99.90;;;;;;4937401;29;20031;-49
2022/01/09 06:25:52;;;;;;;44.45;25.75;;;0.50;99.90;;;;;;4937229;29;20577;-48
2022/01/09 06:28:18;;;;;;;69.40;31.48;;;0.60;99.90;;;;;;4888206;29;20115;-47
2022/01/09 06:30:44;;;;;;;61.85;31.77;;;0.70;99.90;;;;;;4937227;29;20046;-47
2022/01/09 06:33:11;;;;;;;50.40;27.33;;;1.00;99.90;;;;;;4937471;29;20149;-48
2022/01/09 06:35:37;;;;;;;44.70;24.25;;;0.70;99.90;;;;;;4934235;29;20028;-48
2022/01/09 06:38:04;;;;;;;32.22;19.63;;;0.70;99.90;;;;;;4937109;29;20386;-49
2022/01/09 06:40:30;;;;;;;34.03;20.73;;;0.60;99.90;;;;;;4937135;29;20083;-49
2022/01/09 06:42:56;;;;;;;35.70;20.30;;;0.90;99.90;;;;;;4937556;29;20110;-45
2022/01/09 06:45:24;;;;;;;38.28;23.30;;;0.50;99.90;;;;;;4871499;29;20380;-47
2022/01/09 06:47:54;;;;;;;41.28;27.75;;;0.80;99.90;;;;;;4933493;29;20043;-46
2022/01/09 06:50:20;;;;;;;54.47;32.88;;;0.50;99.90;;;;;;4935827;29;20534;-47
2022/01/09 06:52:46;;;;;;;40.72;27.42;;;0.80;99.90;;;;;;4935744;29;20034;-50
2022/01/09 06:55:12;;;;;;;35.92;22.38;;;1.50;99.90;;;;;;4935221;29;20023;-47
2022/01/09 06:57:39;;;;;;;38.13;25.25;;;2.30;99.90;;;;;;4936007;29;20376;-46
2022/01/09 07:00:06;;;;;;;37.00;23.65;;;3.60;99.90;;;;;;4935875;29;20062;-47
2022/01/09 07:02:32;;;;;;;34.08;23.52;;;5.00;99.90;;;;;;4886445;29;20044;-49
2022/01/09 07:04:57;;;;;;;35.20;23.38;;;7.00;99.90;;;;;;4886476;29;20132;-49
2022/01/09 07:07:23;;;;;;;35.20;25.75;;;8.70;99.90;;;;;;4935734;29;20051;-50
2022/01/09 07:09:49;;;;;;;61.92;37.75;;;8.90;99.90;;;;;;4935530;29;20376;-49
2022/01/09 07:12:15;;;;;;;57.20;36.95;;;10.20;99.90;;;;;;4886593;29;20047;-47
2022/01/09 07:14:40;;;;;;;64.15;41.30;;;11.00;99.90;;;;;;4870882;29;20097;-46
2022/01/09 07:17:06;;;;;;;68.00;40.65;;;11.80;99.80;;;;;;4934631;29;20087;-47
2022/01/09 07:19:32;;;;;;;68.05;40.45;;;12.30;97.70;;;;;;4886164;29;20126;-50
2022/01/09 07:21:58;;;;;;;57.28;41.33;;;13.20;96.80;;;;;;4935584;29;20020;-52
2022/01/09 07:24:23;;;;;;;54.58;38.92;;;13.90;94.80;;;;;;4935429;29;20052;-50
2022/01/09 07:26:49;;;;;;;40.67;28.15;;;14.20;93.30;;;;;;4934508;29;20032;-50
2022/01/09 07:29:15;;;;;;;33.97;26.63;;;14.40;91.80;;;;;;4887378;29;20040;-48
2022/01/09 07:31:41;;;;;;;33.00;25.50;;;15.10;90.90;;;;;;4936207;29;20026;-53
2022/01/09 07:34:07;;;;;;;37.90;27.92;;;14.70;90.30;;;;;;4902957;29;20036;-51
2022/01/09 07:36:33;;;;;;;33.92;25.58;;;14.90;87.30;;;;;;4936524;29;20036;-48
2022/01/09 07:38:58;;;;;;;29.38;24.00;;;15.70;87.00;;;;;;4936487;29;20028;-53
2022/01/09 07:41:25;;;;;;;73.22;66.40;;;15.30;85.80;;;;;;4887361;29;20111;-50
2022/01/09 07:43:51;;;;;;;28.20;21.73;;;16.20;84.30;;;;;;4918774;29;20060;-50
2022/01/09 07:46:16;;;;;;;27.15;21.15;;;17.40;89.10;;;;;;4935899;29;20032;-47
2022/01/09 07:48:42;;;;;;;35.47;23.33;;;17.30;80.80;;;;;;4936140;29;20058;-49
2022/01/09 07:51:08;;;;;;;33.55;24.10;;;16.50;79.30;;;;;;4935973;29;20083;-52
2022/01/09 07:53:34;;;;;;;30.27;23.38;;;16.60;80.40;;;;;;4918495;29;20046;-48
2022/01/09 07:56:00;;;;;;;29.67;22.23;;;15.10;80.50;;;;;;4885372;29;20431;-50
2022/01/09 07:58:26;;;;;;;29.27;22.42;;;15.90;79.70;;;;;;4885929;29;20122;-49
2022/01/09 08:00:51;;;;;;;27.08;21.73;;;16.40;78.60;;;;;;4901742;29;20032;-48
2022/01/09 08:03:17;;;;;;;29.35;23.20;;;16.30;76.60;;;;;;4935367;29;20032;-49
2022/01/09 08:05:43;;;;;;;28.75;21.48;;;17.20;78.40;;;;;;4855215;29;20382;-53
2022/01/09 08:08:09;;;;;;;31.90;22.23;;;18.40;76.80;;;;;;4937616;29;20079;-49
2022/01/09 08:10:34;;;;;;;33.22;24.52;;;18.80;74.50;;;;;;4906665;29;20036;-49
2022/01/09 08:13:00;;;;;;;39.50;30.35;;;18.90;74.00;;;;;;4939478;29;20024;-52
2022/01/09 08:15:29;;;;;;;36.30;28.58;;;19.40;73.70;;;;;;4938927;29;20036;-49
2022/01/09 08:17:55;;;;;;;33.10;26.63;;;18.80;74.70;;;;;;4939782;29;20028;-48
2022/01/09 08:20:21;;;;;;;152.93;140.93;;;19.60;73.80;;;;;;4939457;29;20027;-52
2022/01/09 08:22:47;;;;;;;36.35;27.85;;;20.00;71.90;;;;;;4921527;29;20031;-48
2022/01/09 08:25:16;;;;;;;27.90;23.58;;;20.50;69.90;;;;;;4939503;29;20387;-48
2022/01/09 08:27:43;;;;;;;31.27;24.55;;;;;;;;;;4939491;29;20120;-50
2022/01/09 08:30:10;;;;;;;27.45;23.90;;;18.80;68.90;;;;;;4939166;29;20031;-50
2022/01/09 08:32:36;;;;;;;90.68;83.20;;;19.60;70.00;;;;;;4939137;29;20027;-48
2022/01/09 08:35:03;;;;;;;26.45;22.83;;;20.30;83.90;;;;;;4939406;29;20106;-47
2022/01/09 08:37:28;;;;;;;34.00;30.58;;;19.30;68.90;;;;;;4899230;29;20081;-47
2022/01/09 08:39:54;;;;;;;34.38;30.88;;;20.10;68.20;;;;;;4899299;29;20469;-49
2022/01/09 08:42:20;;;;;;;28.05;23.05;;;20.00;67.80;;;;;;4852676;29;20116;-47
2022/01/09 08:44:46;;;;;;;27.08;21.70;;;20.60;67.40;;;;;;4899021;29;20032;-45
2022/01/09 08:47:12;;;;;;;32.47;24.63;;;20.20;67.30;;;;;;4899265;29;20473;-50
2022/01/09 08:49:37;;;;;;;34.33;27.08;;;20.70;66.60;;;;;;4867525;29;20123;-47
2022/01/09 08:52:04;;;;;;;28.92;24.80;;;20.80;66.30;;;;;;4883360;29;20544;-45
2022/01/09 08:54:30;;;;;;;28.17;24.02;;;21.30;65.80;;;;;;4883495;29;20111;-48
2022/01/09 08:56:56;;;;;;;24.73;22.15;;;21.30;65.70;;;;;;4898824;29;20240;-48
2022/01/09 08:59:22;;;;;;;25.73;23.02;;;21.30;65.40;;;;;;4898850;29;20111;-46
2022/01/09 09:01:48;;;;;;;24.20;21.88;;;20.70;64.60;;;;;;4898779;29;20198;-49
2022/01/09 09:04:15;;;;;;;25.15;22.55;;;19.50;65.00;;;;;;4883117;29;20060;-47
2022/01/09 09:06:41;;;;;;;25.67;22.98;;;19.20;66.80;;;;;;4898549;29;20406;-51
2022/01/09 09:09:08;;;;;;;27.60;24.70;;;19.70;66.90;;;;;;4929731;29;20168;-48
2022/01/09 09:11:34;;;;;;;28.10;25.15;;;19.20;65.50;;;;;;4938653;29;20118;-48
2022/01/09 09:14:01;;;;;;;27.42;24.63;;;19.10;67.60;;;;;;4938415;29;20036;-47
2022/01/09 09:16:27;;;;;;;26.67;23.73;;;19.20;67.20;;;;;;4938621;29;20027;-50
2022/01/09 09:18:53;;;;;;;25.33;22.63;;;19.70;66.50;;;;;;4937624;29;20035;-46
2022/01/09 09:21:19;;;;;;;74.43;67.82;;;19.50;67.00;;;;;;4938508;29;20047;-47
2022/01/09 09:23:45;;;;;;;42.40;37.00;;;19.00;67.60;;;;;;4938720;29;20028;-47
2022/01/09 09:26:11;;;;;;;28.08;25.08;;;19.10;66.30;;;;;;4936441;29;20051;-53
2022/01/09 09:28:37;;;;;;;27.90;24.80;;;17.20;68.60;;;;;;4936422;29;20039;-47
2022/01/09 09:31:04;;;;;;;28.17;25.35;;;17.90;69.20;;;;;;4938355;29;20119;-50
2022/01/09 09:33:30;;;;;;;27.15;24.17;;;17.80;69.20;;;;;;4938524;29;20091;-50
2022/01/09 09:35:58;;;;;;;26.30;22.33;;;18.80;67.50;;;;;;4937942;29;20485;-48
2022/01/09 09:38:25;;;;;;;24.13;21.52;;;18.90;68.20;;;;;;4938506;29;20095;-48
2022/01/09 09:40:51;;;;;;;25.85;22.98;;;19.20;73.00;;;;;;4938163;29;20023;-47
2022/01/09 09:43:17;;;;;;;26.35;23.55;;;18.70;67.50;;;;;;4937856;29;20491;-50
2022/01/09 09:45:43;;;;;;;26.38;23.73;;;19.20;67.20;;;;;;4937794;29;20035;-48
2022/01/09 09:48:09;;;;;;;25.85;23.35;;;19.80;66.60;;;;;;4937765;29;20047;-50
2022/01/09 09:50:35;;;;;;;23.67;21.27;;;19.60;67.10;;;;;;4920469;29;20567;-49
2022/01/09 09:53:02;;;;;;;22.65;20.50;;;19.10;67.20;;;;;;4920284;29;20661;-48
2022/01/09 09:55:28;;;;;;;23.50;21.30;;;18.20;67.20;;;;;;4920222;29;20071;-49
2022/01/09 09:57:55;;;;;;;36.92;33.92;;;17.70;67.70;;;;;;4937696;29;20028;-49
2022/01/09 10:00:23;;;;;;;34.13;31.42;;;17.00;79.30;;;;;;4937471;29;20060;-51
2022/01/09 10:02:50;;;;;;;34.78;31.77;;;16.40;69.20;;;;;;4937834;29;20032;-48
2022/01/09 10:05:21;;;;;;;27.30;24.40;;;16.20;69.70;;;;;;4934458;29;20032;-50
2022/01/09 10:07:48;;;;;;;28.27;25.70;;;17.30;69.80;;;;;;4937540;29;20115;-51
2022/01/09 10:10:17;;;;;;;25.08;22.67;;;17.90;68.50;;;;;;4937328;29;20092;-48
2022/01/09 10:12:45;;;;;;;44.42;37.83;;;17.90;69.40;;;;;;4935660;29;20042;-49
2022/01/09 10:27:44;;;;;;;24.60;22.33;;;17.30;68.40;;;;;;5161763;27;20474;-49
2022/01/09 10:30:11;;;;;;;27.35;24.40;;;17.50;68.60;;;;;;5142328;27;20019;-50
2022/01/09 10:32:37;;;;;;;23.27;21.02;;;18.00;68.70;;;;;;5141512;27;20035;-48
2022/01/09 10:35:08;;;;;;;33.90;31.30;;;17.50;68.80;;;;;;5147849;27;20027;-47
2022/01/09 10:37:37;;;;;;;24.75;22.52;;;16.50;69.00;;;;;;5145607;27;20108;-47
2022/01/09 10:40:05;;;;;;;25.92;23.42;;;16.60;70.90;;;;;;5144715;27;20042;-52
2022/01/09 10:42:32;;;;;;;28.58;26.13;;;15.70;92.50;;;;;;5104112;27;20053;-48
2022/01/09 10:45:16;;;;;;;22.63;20.42;;;15.50;93.30;;;;;;5146328;27;20034;-49
2022/01/09 10:47:42;;;;;;;26.33;24.02;;;;;;;;;;5142665;27;20061;-51
2022/01/09 10:50:10;;;;;;;27.35;24.45;;;14.90;72.50;;;;;;5095468;27;20491;-50
2022/01/09 10:52:39;;;;;;;21.17;19.08;;;14.50;74.90;;;;;;5124432;27;20039;-49
2022/01/09 10:55:08;;;;;;;24.55;22.13;;;14.70;74.80;;;;;;5141153;27;20039;-49
2022/01/09 10:57:40;;;;;;;25.42;23.23;;;14.90;73.70;;;;;;5129144;27;20031;-48
2022/01/09 11:00:10;;;;;;;23.55;18.98;;;13.90;74.30;;;;;;5140246;27;20393;-49
2022/01/09 11:02:36;;;;;;;25.27;22.77;;;15.10;74.20;;;;;;5085138;27;20049;-51
2022/01/09 11:05:03;;;;;;;23.90;21.30;;;15.80;74.00;;;;;;5141725;27;20055;-49
2022/01/09 11:07:29;;;;;;;21.42;19.23;;;15.80;72.40;;;;;;5118899;27;20096;-47
2022/01/09 11:09:57;;;;;;;20.88;17.67;;;15.20;72.50;;;;;;5145195;27;20067;-51
2022/01/09 11:12:30;;;;;;;22.13;18.23;;;14.20;73.20;;;;;;5142457;27;20122;-48
2022/01/09 11:15:00;;;;;;;20.55;18.35;;;14.70;73.00;;;;;;5139396;27;20164;-50
2022/01/09 11:17:27;;;;;;;38.25;34.00;;;14.40;74.00;;;;;;5103893;27;20035;-49
2022/01/09 11:19:53;;;;;;;30.88;23.73;;;14.70;73.20;;;;;;5147168;27;20035;-47
2022/01/09 11:22:20;;;;;;;34.25;25.63;;;14.70;74.80;;;;;;5111940;27;21051;-49
2022/01/09 11:25:02;;;;;;;63.20;55.33;;;14.40;74.50;;;;;;5141166;27;20039;-48
2022/01/09 11:27:40;;;;;;;30.35;24.13;;;14.20;74.50;;;;;;5115664;28;20177;-50
2022/01/09 11:30:20;;;;;;;28.00;21.77;;;14.10;75.60;;;;;;5112520;28;20028;-46
2022/01/09 11:32:59;;;;;;;25.30;20.45;;;14.50;74.10;;;;;;5109739;28;20031;-46
2022/01/09 11:36:09;;;;;;;22.13;19.73;;;14.10;74.10;;;;;;5111052;28;20402;-49
2022/01/09 11:38:55;;;;;;;23.27;17.65;;;14.00;73.60;;;;;;5041515;28;20056;-49
2022/01/09 11:41:26;;;;;;;24.88;15.77;;;13.00;74.80;;;;;;5051922;28;20476;-49
2022/01/09 11:43:53;;;;;;;23.90;17.90;;;;;;;;;;5017154;28;20184;-50
2022/01/09 11:46:19;;;;;;;20.65;16.90;;;12.50;76.20;;;;;;5016733;28;20289;-50
2022/01/09 11:48:50;;;;;;;18.00;15.45;;;13.40;76.10;;;;;;5051010;28;20041;-49
2022/01/09 11:51:17;;;;;;;19.40;15.80;;;14.00;74.00;;;;;;5051737;28;20032;-48
2022/01/09 11:54:01;;;;;;;19.38;16.27;;;13.90;73.60;;;;;;5051369;28;20400;-49
2022/01/09 11:56:58;;;;;;;24.20;20.13;;;13.70;73.00;;;;;;5045982;28;20049;-47
2022/01/09 11:59:23;;;;;;;29.85;21.60;;;13.80;72.60;;;;;;5051131;28;20032;-47
2022/01/09 12:01:52;;;;;;;31.48;25.90;;;12.80;74.10;;;;;;5023982;28;20129;-48
2022/01/09 12:04:35;;;;;;;20.92;17.50;;;12.70;75.90;;;;;;5050966;28;20056;-49
2022/01/09 12:07:12;;;;;;;22.60;17.38;;;13.10;75.20;;;;;;5047800;28;20029;-48
2022/01/09 12:09:42;;;;;;;18.40;15.50;;;13.60;75.10;;;;;;5051450;28;20028;-50
2022/01/09 12:12:11;;;;;;;21.85;17.67;;;13.20;74.60;;;;;;5050895;28;20021;-48
2022/01/09 12:14:55;;;;;;;25.50;18.35;;;13.30;77.10;;;;;;5078273;28;20118;-49
2022/01/09 12:17:21;;;;;;;21.55;16.55;;;13.10;76.80;;;;;;5113045;28;20122;-48
2022/01/09 12:20:03;;;;;;;24.23;18.00;;;12.60;76.80;;;;;;5113531;28;20115;-48
2022/01/09 12:22:48;;;;;;;31.88;24.08;;;12.80;77.80;;;;;;5103728;28;20039;-49
2022/01/09 12:25:25;;;;;;;31.45;24.45;;;13.10;80.50;;;;;;5112938;28;20057;-47
2022/01/09 12:28:05;;;;;;;29.80;22.80;;;13.50;79.80;;;;;;5094039;28;20075;-46
2022/01/09 12:30:33;;;;;;;31.85;22.05;;;13.20;79.00;;;;;;5108953;28;20060;-47
2022/01/09 12:33:15;;;;;;;24.77;18.38;;;13.50;78.90;;;;;;5109950;28;20420;-47
2022/01/09 12:35:45;;;;;;;44.78;28.08;;;12.30;79.40;;;;;;5068092;28;20172;-47
2022/01/09 12:38:20;;;;;;;20.33;15.77;;;12.70;79.90;;;;;;5074078;28;20044;-48
2022/01/09 12:40:46;;;;;;;24.42;18.77;;;;;;;;;;5101604;28;20035;-49
2022/01/09 12:43:13;;;;;;;20.83;16.55;;;10.60;81.70;;;;;;5102383;28;20028;-50
2022/01/09 12:45:43;;;;;;;22.75;17.10;;;10.90;83.90;;;;;;5108150;28;20032;-46
2022/01/09 12:48:30;;;;;;;24.85;19.27;;;10.60;84.10;;;;;;5072548;28;20075;-49
2022/01/09 12:51:06;;;;;;;22.27;15.25;;;10.10;85.70;;;;;;5110892;28;20390;-48